sensor_id;sensor_type;location;lat;lon;timestamp;pressure;altitude;pressure_sealevel;temperature
66113;BMP280;52893;52.870;5.822;2023-03-01T00:01:00;103262.94;;;1.94
66113;BMP280;52893;52.870;5.822;2023-03-01T00:03:29;103265.00;;;1.91
66113;BMP280;52893;52.870;5.822;2023-03-01T00:05:56;103263.97;;;1.92
66113;BMP280;52893;52.870;5.822;2023-03-01T00:08:24;103268.31;;;1.94
66113;BMP280;52893;52.870;5.822;2023-03-01T00:11:00;103271.66;;;1.96
66113;BMP280;52893;52.870;5.822;2023-03-01T00:13:27;103260.69;;;1.97
66113;BMP280;52893;52.870;5.822;2023-03-01T00:15:54;103258.41;;;2.01
66113;BMP280;52893;52.870;5.822;2023-03-01T00:18:21;103264.41;;;2.03
66113;BMP280;52893;52.870;5.822;2023-03-01T00:20:51;103265.06;;;2.05
66113;BMP280;52893;52.870;5.822;2023-03-01T00:23:18;103263.00;;;2.07
66113;BMP280;52893;52.870;5.822;2023-03-01T00:25:45;103260.91;;;2.09
66113;BMP280;52893;52.870;5.822;2023-03-01T00:28:13;103253.25;;;2.12
66113;BMP280;52893;52.870;5.822;2023-03-01T00:30:40;103244.16;;;2.13
66113;BMP280;52893;52.870;5.822;2023-03-01T00:33:07;103248.72;;;2.13
66113;BMP280;52893;52.870;5.822;2023-03-01T00:35:35;103246.00;;;2.13
66113;BMP280;52893;52.870;5.822;2023-03-01T00:38:04;103240.63;;;2.13
66113;BMP280;52893;52.870;5.822;2023-03-01T00:40:34;103223.19;;;2.09
66113;BMP280;52893;52.870;5.822;2023-03-01T00:43:02;103230.25;;;2.10
66113;BMP280;52893;52.870;5.822;2023-03-01T00:45:30;103231.50;;;2.07
66113;BMP280;52893;52.870;5.822;2023-03-01T00:47:58;103220.28;;;2.04
66113;BMP280;52893;52.870;5.822;2023-03-01T00:50:25;103227.34;;;2.05
66113;BMP280;52893;52.870;5.822;2023-03-01T00:52:53;103227.34;;;2.05
66113;BMP280;52893;52.870;5.822;2023-03-01T00:55:23;103231.69;;;2.06
66113;BMP280;52893;52.870;5.822;2023-03-01T00:57:50;103229.84;;;2.06
66113;BMP280;52893;52.870;5.822;2023-03-01T01:00:18;103226.91;;;2.08
66113;BMP280;52893;52.870;5.822;2023-03-01T01:02:47;103228.81;;;2.07
66113;BMP280;52893;52.870;5.822;2023-03-01T01:05:14;103226.53;;;2.11
66113;BMP280;52893;52.870;5.822;2023-03-01T01:07:47;103228.56;;;2.09
66113;BMP280;52893;52.870;5.822;2023-03-01T01:10:15;103221.13;;;2.11
66113;BMP280;52893;52.870;5.822;2023-03-01T01:12:45;103233.56;;;2.12
66113;BMP280;52893;52.870;5.822;2023-03-01T01:15:13;103225.09;;;2.15
66113;BMP280;52893;52.870;5.822;2023-03-01T01:17:42;103231.13;;;2.17
66113;BMP280;52893;52.870;5.822;2023-03-01T01:20:10;103218.25;;;2.19
66113;BMP280;52893;52.870;5.822;2023-03-01T01:22:38;103214.50;;;2.20
66113;BMP280;52893;52.870;5.822;2023-03-01T01:25:06;103217.63;;;2.17
66113;BMP280;52893;52.870;5.822;2023-03-01T01:27:33;103216.81;;;2.16
66113;BMP280;52893;52.870;5.822;2023-03-01T01:30:03;103205.16;;;2.03
66113;BMP280;52893;52.870;5.822;2023-03-01T01:32:30;103213.59;;;1.80
66113;BMP280;52893;52.870;5.822;2023-03-01T01:34:57;103212.28;;;1.63
66113;BMP280;52893;52.870;5.822;2023-03-01T01:37:24;103215.13;;;1.48
66113;BMP280;52893;52.870;5.822;2023-03-01T01:39:57;103200.81;;;1.41
66113;BMP280;52893;52.870;5.822;2023-03-01T01:42:26;103200.16;;;1.39
66113;BMP280;52893;52.870;5.822;2023-03-01T01:45:29;103199.13;;;1.40
66113;BMP280;52893;52.870;5.822;2023-03-01T01:48:02;103191.91;;;1.40
66113;BMP280;52893;52.870;5.822;2023-03-01T01:50:30;103195.00;;;1.44
66113;BMP280;52893;52.870;5.822;2023-03-01T01:53:06;103192.75;;;1.47
66113;BMP280;52893;52.870;5.822;2023-03-01T01:55:37;103192.38;;;1.50
66113;BMP280;52893;52.870;5.822;2023-03-01T01:58:08;103188.63;;;1.51
66113;BMP280;52893;52.870;5.822;2023-03-01T02:00:38;103179.50;;;1.52
66113;BMP280;52893;52.870;5.822;2023-03-01T02:03:09;103191.13;;;1.53
66113;BMP280;52893;52.870;5.822;2023-03-01T02:05:40;103174.97;;;1.53
66113;BMP280;52893;52.870;5.822;2023-03-01T02:08:11;103178.28;;;1.55
66113;BMP280;52893;52.870;5.822;2023-03-01T02:10:40;103173.53;;;1.57
66113;BMP280;52893;52.870;5.822;2023-03-01T02:13:09;103174.19;;;1.59
66113;BMP280;52893;52.870;5.822;2023-03-01T02:15:39;103169.19;;;1.63
66113;BMP280;52893;52.870;5.822;2023-03-01T02:18:11;103175.84;;;1.67
66113;BMP280;52893;52.870;5.822;2023-03-01T02:20:46;103167.16;;;1.71
66113;BMP280;52893;52.870;5.822;2023-03-01T02:23:16;103173.81;;;1.75
66113;BMP280;52893;52.870;5.822;2023-03-01T02:25:47;103158.06;;;1.72
66113;BMP280;52893;52.870;5.822;2023-03-01T02:28:31;103169.66;;;1.79
66113;BMP280;52893;52.870;5.822;2023-03-01T02:30:58;103157.25;;;1.78
66113;BMP280;52893;52.870;5.822;2023-03-01T02:33:44;103160.94;;;1.71
66113;BMP280;52893;52.870;5.822;2023-03-01T02:36:15;103159.63;;;1.53
66113;BMP280;52893;52.870;5.822;2023-03-01T02:38:43;103160.81;;;1.38
66113;BMP280;52893;52.870;5.822;2023-03-01T02:41:13;103152.50;;;1.26
66113;BMP280;52893;52.870;5.822;2023-03-01T02:43:43;103145.25;;;1.20
66113;BMP280;52893;52.870;5.822;2023-03-01T02:46:15;103143.13;;;1.16
66113;BMP280;52893;52.870;5.822;2023-03-01T02:48:45;103139.19;;;1.11
66113;BMP280;52893;52.870;5.822;2023-03-01T02:51:27;103135.22;;;1.07
66113;BMP280;52893;52.870;5.822;2023-03-01T02:54:05;103135.22;;;1.07
66113;BMP280;52893;52.870;5.822;2023-03-01T02:56:34;103130.50;;;1.09
66113;BMP280;52893;52.870;5.822;2023-03-01T02:59:04;103134.00;;;1.10
66113;BMP280;52893;52.870;5.822;2023-03-01T03:01:31;103127.09;;;0.94
66113;BMP280;52893;52.870;5.822;2023-03-01T03:04:05;103125.72;;;0.77
66113;BMP280;52893;52.870;5.822;2023-03-01T03:06:32;103130.44;;;0.68
66113;BMP280;52893;52.870;5.822;2023-03-01T03:09:01;103129.38;;;0.63
66113;BMP280;52893;52.870;5.822;2023-03-01T03:11:28;103127.91;;;0.60
66113;BMP280;52893;52.870;5.822;2023-03-01T03:13:57;103113.78;;;0.52
66113;BMP280;52893;52.870;5.822;2023-03-01T03:16:26;103121.19;;;0.50
66113;BMP280;52893;52.870;5.822;2023-03-01T03:18:53;103119.75;;;0.47
66113;BMP280;52893;52.870;5.822;2023-03-01T03:21:20;103134.22;;;0.46
66113;BMP280;52893;52.870;5.822;2023-03-01T03:23:47;103124.66;;;0.44
66113;BMP280;52893;52.870;5.822;2023-03-01T03:26:14;103125.03;;;0.41
66113;BMP280;52893;52.870;5.822;2023-03-01T03:28:42;103122.16;;;0.42
66113;BMP280;52893;52.870;5.822;2023-03-01T03:31:09;103119.28;;;0.44
66113;BMP280;52893;52.870;5.822;2023-03-01T03:33:37;103115.19;;;0.48
66113;BMP280;52893;52.870;5.822;2023-03-01T03:36:05;103106.09;;;0.49
66113;BMP280;52893;52.870;5.822;2023-03-01T03:38:32;103098.19;;;0.41
66113;BMP280;52893;52.870;5.822;2023-03-01T03:41:01;103103.31;;;0.35
66113;BMP280;52893;52.870;5.822;2023-03-01T03:43:30;103105.97;;;0.29
66113;BMP280;52893;52.870;5.822;2023-03-01T03:45:58;103100.41;;;0.30
66113;BMP280;52893;52.870;5.822;2023-03-01T03:48:26;103098.75;;;0.29
66113;BMP280;52893;52.870;5.822;2023-03-01T03:50:56;103089.66;;;0.30
66113;BMP280;52893;52.870;5.822;2023-03-01T03:53:24;103105.38;;;0.33
66113;BMP280;52893;52.870;5.822;2023-03-01T03:55:53;103098.97;;;0.34
66113;BMP280;52893;52.870;5.822;2023-03-01T03:58:22;103096.50;;;0.39
66113;BMP280;52893;52.870;5.822;2023-03-01T04:00:52;103105.84;;;0.44
66113;BMP280;52893;52.870;5.822;2023-03-01T04:03:22;103109.41;;;0.51
66113;BMP280;52893;52.870;5.822;2023-03-01T04:05:50;103097.88;;;0.57
66113;BMP280;52893;52.870;5.822;2023-03-01T04:08:20;103102.09;;;0.66
66113;BMP280;52893;52.870;5.822;2023-03-01T04:10:48;103100.09;;;0.74
66113;BMP280;52893;52.870;5.822;2023-03-01T04:13:18;103109.22;;;0.80
66113;BMP280;52893;52.870;5.822;2023-03-01T04:15:46;103104.06;;;0.85
66113;BMP280;52893;52.870;5.822;2023-03-01T04:18:15;103116.09;;;0.89
66113;BMP280;52893;52.870;5.822;2023-03-01T04:20:43;103107.00;;;0.90
66113;BMP280;52893;52.870;5.822;2023-03-01T04:23:12;103109.69;;;0.90
66113;BMP280;52893;52.870;5.822;2023-03-01T04:25:46;103103.69;;;0.88
66113;BMP280;52893;52.870;5.822;2023-03-01T04:28:20;103105.34;;;0.89
66113;BMP280;52893;52.870;5.822;2023-03-01T04:30:47;103099.31;;;0.87
66113;BMP280;52893;52.870;5.822;2023-03-01T04:33:14;103101.38;;;0.85
66113;BMP280;52893;52.870;5.822;2023-03-01T04:35:41;103096.41;;;0.82
66113;BMP280;52893;52.870;5.822;2023-03-01T04:38:09;103098.84;;;0.77
66113;BMP280;52893;52.870;5.822;2023-03-01T04:40:36;103091.34;;;0.66
66113;BMP280;52893;52.870;5.822;2023-03-01T04:43:05;103091.88;;;0.55
66113;BMP280;52893;52.870;5.822;2023-03-01T04:45:33;103084.56;;;0.42
66113;BMP280;52893;52.870;5.822;2023-03-01T04:48:01;103090.75;;;0.43
66113;BMP280;52893;52.870;5.822;2023-03-01T04:50:29;103084.31;;;0.37
66113;BMP280;52893;52.870;5.822;2023-03-01T04:52:56;103096.69;;;0.31
66113;BMP280;52893;52.870;5.822;2023-03-01T04:55:26;103096.84;;;0.23
66113;BMP280;52893;52.870;5.822;2023-03-01T04:57:53;103095.53;;;0.19
66113;BMP280;52893;52.870;5.822;2023-03-01T05:00:23;103094.28;;;0.15
66113;BMP280;52893;52.870;5.822;2023-03-01T05:02:52;103091.34;;;0.10
66113;BMP280;52893;52.870;5.822;2023-03-01T05:05:25;103096.47;;;0.05
66113;BMP280;52893;52.870;5.822;2023-03-01T05:07:54;103091.66;;;0.00
66113;BMP280;52893;52.870;5.822;2023-03-01T05:10:22;103085.09;;;0.03
66113;BMP280;52893;52.870;5.822;2023-03-01T05:12:50;103075.38;;;0.02
66113;BMP280;52893;52.870;5.822;2023-03-01T05:15:19;103076.66;;;0.06
66113;BMP280;52893;52.870;5.822;2023-03-01T05:17:49;103073.97;;;0.06
66113;BMP280;52893;52.870;5.822;2023-03-01T05:20:16;103073.13;;;0.06
66113;BMP280;52893;52.870;5.822;2023-03-01T05:22:48;103060.28;;;0.01
66113;BMP280;52893;52.870;5.822;2023-03-01T05:25:16;103062.53;;;-0.03
66113;BMP280;52893;52.870;5.822;2023-03-01T05:27:43;103061.44;;;-0.08
66113;BMP280;52893;52.870;5.822;2023-03-01T05:30:11;103051.47;;;-0.14
66113;BMP280;52893;52.870;5.822;2023-03-01T05:32:45;103050.41;;;-0.20
66113;BMP280;52893;52.870;5.822;2023-03-01T05:35:15;103037.72;;;-0.26
66113;BMP280;52893;52.870;5.822;2023-03-01T05:37:44;103046.81;;;-0.27
66113;BMP280;52893;52.870;5.822;2023-03-01T05:40:14;103025.25;;;-0.33
66113;BMP280;52893;52.870;5.822;2023-03-01T05:42:43;103033.28;;;-0.33
66113;BMP280;52893;52.870;5.822;2023-03-01T05:45:11;103027.69;;;-0.39
66113;BMP280;52893;52.870;5.822;2023-03-01T05:47:39;103028.91;;;-0.41
66113;BMP280;52893;52.870;5.822;2023-03-01T05:50:11;103027.59;;;-0.45
66113;BMP280;52893;52.870;5.822;2023-03-01T05:52:40;103025.50;;;-0.50
66113;BMP280;52893;52.870;5.822;2023-03-01T05:55:08;103025.88;;;-0.53
66113;BMP280;52893;52.870;5.822;2023-03-01T05:57:35;103027.41;;;-0.65
66113;BMP280;52893;52.870;5.822;2023-03-01T06:00:03;103025.47;;;-0.71
66113;BMP280;52893;52.870;5.822;2023-03-01T06:02:38;103023.16;;;-0.74
66113;BMP280;52893;52.870;5.822;2023-03-01T06:05:07;103034.66;;;-0.80
66113;BMP280;52893;52.870;5.822;2023-03-01T06:07:35;103032.09;;;-0.88
66113;BMP280;52893;52.870;5.822;2023-03-01T06:10:05;103024.91;;;-1.02
66113;BMP280;52893;52.870;5.822;2023-03-01T06:12:33;103031.25;;;-1.03
66113;BMP280;52893;52.870;5.822;2023-03-01T06:15:02;103032.69;;;-1.07
66113;BMP280;52893;52.870;5.822;2023-03-01T06:17:31;103029.53;;;-1.11
66113;BMP280;52893;52.870;5.822;2023-03-01T06:19:58;103032.38;;;-1.13
66113;BMP280;52893;52.870;5.822;2023-03-01T06:22:27;103034.06;;;-1.12
66113;BMP280;52893;52.870;5.822;2023-03-01T06:24:54;103032.38;;;-1.13
66113;BMP280;52893;52.870;5.822;2023-03-01T06:27:22;103032.78;;;-1.16
66113;BMP280;52893;52.870;5.822;2023-03-01T06:29:49;103034.06;;;-1.12
66113;BMP280;52893;52.870;5.822;2023-03-01T06:32:17;103035.53;;;-1.09
66113;BMP280;52893;52.870;5.822;2023-03-01T06:34:44;103031.00;;;-1.08
66113;BMP280;52893;52.870;5.822;2023-03-01T06:37:11;103036.38;;;-1.08
66113;BMP280;52893;52.870;5.822;2023-03-01T06:39:38;103042.56;;;-1.08
66113;BMP280;52893;52.870;5.822;2023-03-01T06:42:07;103042.19;;;-1.05
66113;BMP280;52893;52.870;5.822;2023-03-01T06:44:35;103046.72;;;-1.05
66113;BMP280;52893;52.870;5.822;2023-03-01T06:47:03;103038.88;;;-1.07
66113;BMP280;52893;52.870;5.822;2023-03-01T06:49:30;103039.53;;;-1.05
66113;BMP280;52893;52.870;5.822;2023-03-01T06:51:57;103045.13;;;-1.00
66113;BMP280;52893;52.870;5.822;2023-03-01T06:54:24;103050.97;;;-0.96
66113;BMP280;52893;52.870;5.822;2023-03-01T06:56:52;103053.19;;;-0.85
66113;BMP280;52893;52.870;5.822;2023-03-01T06:59:19;103051.00;;;-0.75
66113;BMP280;52893;52.870;5.822;2023-03-01T07:01:47;103046.56;;;-0.68
66113;BMP280;52893;52.870;5.822;2023-03-01T07:04:14;103055.16;;;-0.58
66113;BMP280;52893;52.870;5.822;2023-03-01T07:06:42;103055.97;;;-0.57
66113;BMP280;52893;52.870;5.822;2023-03-01T07:09:11;103055.75;;;-0.56
66113;BMP280;52893;52.870;5.822;2023-03-01T07:11:39;103061.13;;;-0.56
66113;BMP280;52893;52.870;5.822;2023-03-01T07:14:06;103063.63;;;-0.54
66113;BMP280;52893;52.870;5.822;2023-03-01T07:16:33;103064.91;;;-0.50
66113;BMP280;52893;52.870;5.822;2023-03-01T07:19:02;103057.94;;;-0.45
66113;BMP280;52893;52.870;5.822;2023-03-01T07:21:29;103067.53;;;-0.36
66113;BMP280;52893;52.870;5.822;2023-03-01T07:23:56;103055.06;;;-0.28
66113;BMP280;52893;52.870;5.822;2023-03-01T07:26:23;103053.84;;;-0.26
66113;BMP280;52893;52.870;5.822;2023-03-01T07:28:50;103057.41;;;-0.19
66113;BMP280;52893;52.870;5.822;2023-03-01T07:31:18;103067.03;;;-0.10
66113;BMP280;52893;52.870;5.822;2023-03-01T07:33:45;103062.22;;;-0.14
66113;BMP280;52893;52.870;5.822;2023-03-01T07:36:13;103072.91;;;-0.21
66113;BMP280;52893;52.870;5.822;2023-03-01T07:38:40;103072.44;;;-0.24
66113;BMP280;52893;52.870;5.822;2023-03-01T07:41:07;103063.00;;;-0.20
66113;BMP280;52893;52.870;5.822;2023-03-01T07:43:35;103069.63;;;0.05
66113;BMP280;52893;52.870;5.822;2023-03-01T07:46:02;103070.44;;;0.33
66113;BMP280;52893;52.870;5.822;2023-03-01T07:48:31;103061.16;;;0.64
66113;BMP280;52893;52.870;5.822;2023-03-01T07:50:58;103059.66;;;0.96
66113;BMP280;52893;52.870;5.822;2023-03-01T07:53:28;103056.47;;;1.27
66113;BMP280;52893;52.870;5.822;2023-03-01T07:56:00;103059.84;;;1.55
66113;BMP280;52893;52.870;5.822;2023-03-01T07:58:28;103048.91;;;1.83
66113;BMP280;52893;52.870;5.822;2023-03-01T08:00:55;103054.91;;;2.11
66113;BMP280;52893;52.870;5.822;2023-03-01T08:03:22;103059.41;;;2.37
66113;BMP280;52893;52.870;5.822;2023-03-01T08:05:49;103065.34;;;2.65
66113;BMP280;52893;52.870;5.822;2023-03-01T08:08:16;103065.88;;;2.94
66113;BMP280;52893;52.870;5.822;2023-03-01T08:10:45;103065.19;;;3.18
66113;BMP280;52893;52.870;5.822;2023-03-01T08:13:12;103066.88;;;3.44
66113;BMP280;52893;52.870;5.822;2023-03-01T08:15:39;103064.59;;;3.72
66113;BMP280;52893;52.870;5.822;2023-03-01T08:18:06;103066.84;;;4.00
66113;BMP280;52893;52.870;5.822;2023-03-01T08:20:33;103070.41;;;4.19
66113;BMP280;52893;52.870;5.822;2023-03-01T08:23:01;103066.88;;;4.37
66113;BMP280;52893;52.870;5.822;2023-03-01T08:25:28;103076.56;;;4.51
66113;BMP280;52893;52.870;5.822;2023-03-01T08:27:56;103062.53;;;4.72
66113;BMP280;52893;52.870;5.822;2023-03-01T08:30:24;103070.84;;;5.07
66113;BMP280;52893;52.870;5.822;2023-03-01T08:32:51;103068.13;;;5.37
66113;BMP280;52893;52.870;5.822;2023-03-01T08:35:19;103063.94;;;5.64
66113;BMP280;52893;52.870;5.822;2023-03-01T08:37:46;103068.88;;;5.90
66113;BMP280;52893;52.870;5.822;2023-03-01T08:40:14;103043.41;;;6.15
66113;BMP280;52893;52.870;5.822;2023-03-01T08:42:41;103056.94;;;6.38
66113;BMP280;52893;52.870;5.822;2023-03-01T08:45:11;103055.03;;;6.50
66113;BMP280;52893;52.870;5.822;2023-03-01T08:47:40;103058.41;;;6.57
66113;BMP280;52893;52.870;5.822;2023-03-01T08:50:08;103053.69;;;6.64
66113;BMP280;52893;52.870;5.822;2023-03-01T08:52:35;103037.41;;;6.64
66113;BMP280;52893;52.870;5.822;2023-03-01T08:55:03;103049.44;;;6.68
66113;BMP280;52893;52.870;5.822;2023-03-01T08:57:30;103046.56;;;7.03
66113;BMP280;52893;52.870;5.822;2023-03-01T09:00:00;103045.28;;;7.39
66113;BMP280;52893;52.870;5.822;2023-03-01T09:02:30;103048.91;;;7.62
66113;BMP280;52893;52.870;5.822;2023-03-01T09:04:57;103045.88;;;7.96
66113;BMP280;52893;52.870;5.822;2023-03-01T09:07:26;103036.50;;;8.31
66113;BMP280;52893;52.870;5.822;2023-03-01T09:09:54;103043.47;;;8.43
66113;BMP280;52893;52.870;5.822;2023-03-01T09:12:21;103035.66;;;8.74
66113;BMP280;52893;52.870;5.822;2023-03-01T09:14:50;103040.88;;;9.07
66113;BMP280;52893;52.870;5.822;2023-03-01T09:17:17;103037.44;;;9.22
66113;BMP280;52893;52.870;5.822;2023-03-01T09:19:48;103036.91;;;9.25
66113;BMP280;52893;52.870;5.822;2023-03-01T09:22:16;103041.84;;;9.28
66113;BMP280;52893;52.870;5.822;2023-03-01T09:24:43;103030.84;;;9.50
66113;BMP280;52893;52.870;5.822;2023-03-01T09:27:10;103030.97;;;9.75
66113;BMP280;52893;52.870;5.822;2023-03-01T09:29:38;103032.50;;;10.03
66113;BMP280;52893;52.870;5.822;2023-03-01T09:32:06;103025.22;;;10.23
66113;BMP280;52893;52.870;5.822;2023-03-01T09:34:34;103030.97;;;10.37
66113;BMP280;52893;52.870;5.822;2023-03-01T09:37:23;103035.56;;;10.16
66113;BMP280;52893;52.870;5.822;2023-03-01T09:39:50;103026.25;;;10.12
66113;BMP280;52893;52.870;5.822;2023-03-01T09:42:17;103025.22;;;10.29
66113;BMP280;52893;52.870;5.822;2023-03-01T09:44:48;103022.78;;;10.42
66113;BMP280;52893;52.870;5.822;2023-03-01T09:47:19;103026.38;;;10.48
66113;BMP280;52893;52.870;5.822;2023-03-01T09:49:53;103024.97;;;10.30
66113;BMP280;52893;52.870;5.822;2023-03-01T09:52:29;102992.72;;;10.22
66113;BMP280;52893;52.870;5.822;2023-03-01T09:55:01;103022.56;;;10.59
66113;BMP280;52893;52.870;5.822;2023-03-01T09:57:33;103030.50;;;10.55
66113;BMP280;52893;52.870;5.822;2023-03-01T10:00:23;103025.06;;;10.70
66113;BMP280;52893;52.870;5.822;2023-03-01T10:02:56;103029.97;;;10.94
66113;BMP280;52893;52.870;5.822;2023-03-01T10:05:34;103028.03;;;11.25
66113;BMP280;52893;52.870;5.822;2023-03-01T10:08:29;103030.72;;;11.65
66113;BMP280;52893;52.870;5.822;2023-03-01T10:10:59;103025.81;;;12.21
66113;BMP280;52893;52.870;5.822;2023-03-01T10:13:34;103026.78;;;12.74
66113;BMP280;52893;52.870;5.822;2023-03-01T10:16:10;103028.97;;;13.35
66113;BMP280;52893;52.870;5.822;2023-03-01T10:18:39;103025.47;;;13.53
66113;BMP280;52893;52.870;5.822;2023-03-01T10:21:14;103019.03;;;13.86
66113;BMP280;52893;52.870;5.822;2023-03-01T10:23:43;103020.00;;;14.14
66113;BMP280;52893;52.870;5.822;2023-03-01T10:26:30;103011.56;;;14.29
66113;BMP280;52893;52.870;5.822;2023-03-01T10:29:03;103010.41;;;14.30
66113;BMP280;52893;52.870;5.822;2023-03-01T10:31:38;103022.22;;;14.49
66113;BMP280;52893;52.870;5.822;2023-03-01T10:34:14;103014.00;;;14.95
66113;BMP280;52893;52.870;5.822;2023-03-01T10:36:43;103009.31;;;15.10
66113;BMP280;52893;52.870;5.822;2023-03-01T10:39:15;102982.22;;;15.03
66113;BMP280;52893;52.870;5.822;2023-03-01T10:41:58;103012.75;;;15.01
66113;BMP280;52893;52.870;5.822;2023-03-01T10:44:38;103003.81;;;15.23
66113;BMP280;52893;52.870;5.822;2023-03-01T10:47:14;102995.78;;;15.54
66113;BMP280;52893;52.870;5.822;2023-03-01T10:50:01;102994.25;;;15.62
66113;BMP280;52893;52.870;5.822;2023-03-01T10:52:31;102987.84;;;15.88
66113;BMP280;52893;52.870;5.822;2023-03-01T10:55:03;102997.44;;;15.91
66113;BMP280;52893;52.870;5.822;2023-03-01T10:57:34;102995.13;;;16.07
66113;BMP280;52893;52.870;5.822;2023-03-01T11:00:24;102985.59;;;16.35
66113;BMP280;52893;52.870;5.822;2023-03-01T11:03:11;102993.22;;;16.60
66113;BMP280;52893;52.870;5.822;2023-03-01T11:06:01;102996.09;;;16.11
66113;BMP280;52893;52.870;5.822;2023-03-01T11:08:37;102997.47;;;15.77
66113;BMP280;52893;52.870;5.822;2023-03-01T11:11:26;102993.94;;;15.85
66113;BMP280;52893;52.870;5.822;2023-03-01T11:13:58;102998.34;;;15.86
66113;BMP280;52893;52.870;5.822;2023-03-01T11:16:31;102979.00;;;15.78
66113;BMP280;52893;52.870;5.822;2023-03-01T11:21:57;102992.31;;;15.84
66113;BMP280;52893;52.870;5.822;2023-03-01T11:24:34;102983.59;;;16.05
66113;BMP280;52893;52.870;5.822;2023-03-01T11:27:13;102979.47;;;16.16
66113;BMP280;52893;52.870;5.822;2023-03-01T11:29:45;102977.00;;;15.92
66113;BMP280;52893;52.870;5.822;2023-03-01T11:32:18;102972.06;;;16.02
66113;BMP280;52893;52.870;5.822;2023-03-01T11:34:49;102968.63;;;15.97
66113;BMP280;52893;52.870;5.822;2023-03-01T11:37:28;102972.72;;;15.86
66113;BMP280;52893;52.870;5.822;2023-03-01T11:40:11;102961.66;;;15.77
66113;BMP280;52893;52.870;5.822;2023-03-01T11:42:48;102967.03;;;15.82
66113;BMP280;52893;52.870;5.822;2023-03-01T11:45:17;102977.25;;;15.82
66113;BMP280;52893;52.870;5.822;2023-03-01T11:47:55;102966.47;;;15.58
66113;BMP280;52893;52.870;5.822;2023-03-01T11:50:30;102970.75;;;15.64
66113;BMP280;52893;52.870;5.822;2023-03-01T11:56:03;102967.75;;;15.25
66113;BMP280;52893;52.870;5.822;2023-03-01T11:58:54;102969.84;;;14.73
66113;BMP280;52893;52.870;5.822;2023-03-01T12:01:34;102970.19;;;13.83
66113;BMP280;52893;52.870;5.822;2023-03-01T12:04:46;102954.03;;;12.87
66113;BMP280;52893;52.870;5.822;2023-03-01T12:07:22;102956.91;;;12.43
66113;BMP280;52893;52.870;5.822;2023-03-01T12:10:07;102962.09;;;12.05
66113;BMP280;52893;52.870;5.822;2023-03-01T12:12:51;102948.06;;;11.63
66113;BMP280;52893;52.870;5.822;2023-03-01T12:16:07;102939.72;;;11.14
66113;BMP280;52893;52.870;5.822;2023-03-01T12:18:51;102929.44;;;10.81
66113;BMP280;52893;52.870;5.822;2023-03-01T12:21:28;102923.38;;;10.58
66113;BMP280;52893;52.870;5.822;2023-03-01T12:24:12;102915.47;;;10.42
66113;BMP280;52893;52.870;5.822;2023-03-01T12:26:47;102904.00;;;10.35
66113;BMP280;52893;52.870;5.822;2023-03-01T12:29:25;102917.09;;;10.17
66113;BMP280;52893;52.870;5.822;2023-03-01T12:32:09;102899.03;;;10.01
66113;BMP280;52893;52.870;5.822;2023-03-01T12:35:08;102896.00;;;9.93
66113;BMP280;52893;52.870;5.822;2023-03-01T12:37:47;102880.16;;;9.85
66113;BMP280;52893;52.870;5.822;2023-03-01T12:40:33;102895.72;;;9.79
66113;BMP280;52893;52.870;5.822;2023-03-01T12:43:05;102882.56;;;9.61
66113;BMP280;52893;52.870;5.822;2023-03-01T12:46:02;102884.16;;;9.52
66113;BMP280;52893;52.870;5.822;2023-03-01T12:48:46;102884.66;;;9.44
66113;BMP280;52893;52.870;5.822;2023-03-01T12:51:17;102877.25;;;9.34
66113;BMP280;52893;52.870;5.822;2023-03-01T12:53:48;102881.84;;;9.28
66113;BMP280;52893;52.870;5.822;2023-03-01T12:56:19;102886.75;;;9.26
66113;BMP280;52893;52.870;5.822;2023-03-01T12:58:54;102885.72;;;9.32
66113;BMP280;52893;52.870;5.822;2023-03-01T13:01:30;102874.25;;;9.35
66113;BMP280;52893;52.870;5.822;2023-03-01T13:04:20;102873.72;;;9.39
66113;BMP280;52893;52.870;5.822;2023-03-01T13:07:00;102864.13;;;9.26
66113;BMP280;52893;52.870;5.822;2023-03-01T13:09:34;102857.25;;;9.18
66113;BMP280;52893;52.870;5.822;2023-03-01T13:12:03;102856.94;;;9.05
66113;BMP280;52893;52.870;5.822;2023-03-01T13:14:44;102853.06;;;9.01
66113;BMP280;52893;52.870;5.822;2023-03-01T13:17:40;102861.84;;;9.08
66113;BMP280;52893;52.870;5.822;2023-03-01T13:20:14;102857.22;;;9.08
66113;BMP280;52893;52.870;5.822;2023-03-01T13:22:42;102858.28;;;9.02
66113;BMP280;52893;52.870;5.822;2023-03-01T13:25:15;102846.25;;;8.98
66113;BMP280;52893;52.870;5.822;2023-03-01T13:27:44;102859.91;;;9.03
66113;BMP280;52893;52.870;5.822;2023-03-01T13:30:39;102850.59;;;8.94
66113;BMP280;52893;52.870;5.822;2023-03-01T13:33:40;102847.84;;;8.89
66113;BMP280;52893;52.870;5.822;2023-03-01T13:36:11;102842.41;;;8.89
66113;BMP280;52893;52.870;5.822;2023-03-01T13:38:46;102831.22;;;8.85
66113;BMP280;52893;52.870;5.822;2023-03-01T13:41:14;102826.84;;;8.84
66113;BMP280;52893;52.870;5.822;2023-03-01T13:43:42;102833.13;;;8.85
66113;BMP280;52893;52.870;5.822;2023-03-01T13:46:16;102823.56;;;8.87
66113;BMP280;52893;52.870;5.822;2023-03-01T13:48:45;102824.94;;;8.85
66113;BMP280;52893;52.870;5.822;2023-03-01T13:51:20;102818.94;;;8.88
66113;BMP280;52893;52.870;5.822;2023-03-01T13:53:50;102822.75;;;8.87
66113;BMP280;52893;52.870;5.822;2023-03-01T13:56:19;102825.75;;;8.85
66113;BMP280;52893;52.870;5.822;2023-03-01T13:58:49;102812.41;;;8.84
66113;BMP280;52893;52.870;5.822;2023-03-01T14:01:22;102809.13;;;8.87
66113;BMP280;52893;52.870;5.822;2023-03-01T14:03:50;102791.72;;;8.88
66113;BMP280;52893;52.870;5.822;2023-03-01T14:06:22;102808.06;;;8.88
66113;BMP280;52893;52.870;5.822;2023-03-01T14:09:03;102795.44;;;8.77
66113;BMP280;52893;52.870;5.822;2023-03-01T14:11:56;102797.63;;;8.75
66113;BMP280;52893;52.870;5.822;2023-03-01T14:14:44;102792.19;;;8.75
66113;BMP280;52893;52.870;5.822;2023-03-01T14:17:30;102794.34;;;8.73
66113;BMP280;52893;52.870;5.822;2023-03-01T14:20:03;102798.97;;;8.72
66113;BMP280;52893;52.870;5.822;2023-03-01T14:22:40;102791.34;;;8.69
66113;BMP280;52893;52.870;5.822;2023-03-01T14:25:20;102786.41;;;8.66
66113;BMP280;52893;52.870;5.822;2023-03-01T14:27:55;102777.13;;;8.62
66113;BMP280;52893;52.870;5.822;2023-03-01T14:30:25;102756.00;;;8.42
66113;BMP280;52893;52.870;5.822;2023-03-01T14:32:54;102773.84;;;8.60
66113;BMP280;52893;52.870;5.822;2023-03-01T14:35:24;102779.59;;;8.64